Rm Boreas — HKJF4 — position and weather

sailwx.info

Track history (hours):
 
Tides and Currents Weather Stations Pressure Air Temp Water Temp Dewpoint Dewpoint Depression Visibility Wind Speed Wind Dir Waves Ship Positions

Rm Boreas

Last reported at 2018-Jun-20 16:27 UTC. Time now 2018-Jun-20 17:13 UTC.
Position N 10°21' W 075°31'.

Length 30 m; draft 4 m.

Type: Tug. MMSI: 730151209.

Date/timePositionNaut miles runAvg speedWind from/ knotsBaromVisibWave heightAir tempDewpointWater temp
2018-Jun-20 16:27N 10°21' W 075°31'4 5.6
2018-Jun-20 15:50N 10°24' W 075°32'0 0.3
2018-Jun-20 15:30N 10°24' W 075°32'1 1.5
2018-Jun-20 14:59N 10°24' W 075°32'1 1.2
2018-Jun-20 14:29N 10°24' W 075°32'0 0.2
2018-Jun-20 13:58N 10°24' W 075°32'0 0.0
2018-Jun-20 13:17N 10°24' W 075°32'0 0.0
2018-Jun-20 12:58N 10°24' W 075°32'0 0.1
2018-Jun-20 12:29N 10°24' W 075°32'0 0.4
2018-Jun-20 12:00N 10°24' W 075°32'2 4.0
2018-Jun-20 11:30N 10°22' W 075°31'1 1.4
2018-Jun-20 11:00N 10°23' W 075°31'0 0.0
2018-Jun-20 10:30N 10°23' W 075°31'0 0.0
2018-Jun-20 09:59N 10°23' W 075°31'0 0.2
2018-Jun-20 09:30N 10°23' W 075°31'1 1.8
2018-Jun-20 08:55N 10°22' W 075°32'1 2.4
2018-Jun-20 08:29N 10°23' W 075°31'0 0.2
2018-Jun-20 08:00N 10°23' W 075°31'0 0.0
2018-Jun-20 07:30N 10°23' W 075°31'0 0.0
2018-Jun-20 07:00N 10°23' W 075°31'0 0.0
2018-Jun-20 06:30N 10°23' W 075°31'0 0.0
2018-Jun-20 06:00N 10°23' W 075°31'0 0.0
2018-Jun-20 05:30N 10°23' W 075°31'0 0.0
2018-Jun-20 04:59N 10°23' W 075°31'0 0.0
2018-Jun-20 04:30N 10°23' W 075°31'0 0.0
2018-Jun-20 04:00N 10°23' W 075°31'0 0.0
2018-Jun-20 03:30N 10°23' W 075°31'0 0.0
2018-Jun-20 03:00N 10°23' W 075°31'0 0.6
2018-Jun-20 02:30N 10°23' W 075°31'0 0.3
2018-Jun-20 02:00N 10°23' W 075°31'0 0.6
2018-Jun-20 01:29N 10°23' W 075°31'0 0.0
2018-Jun-20 01:00N 10°23' W 075°31'0 0.0
2018-Jun-20 00:29N 10°23' W 075°31'0 0.0
2018-Jun-20 00:00N 10°23' W 075°31'0 0.0
2018-Jun-19 23:28N 10°23' W 075°31'0 0.0
2018-Jun-19 23:00N 10°23' W 075°31'0 0.8
2018-Jun-19 22:29N 10°23' W 075°31'0 0.5
2018-Jun-19 22:00N 10°22' W 075°31'0 0.0
2018-Jun-19 21:29N 10°22' W 075°31'2 3.8
2018-Jun-19 20:59N 10°21' W 075°31'0 0.0
2018-Jun-19 20:30N 10°21' W 075°31'1 1.8
2018-Jun-19 20:00N 10°20' W 075°31'1 1.8
2018-Jun-19 19:30N 10°21' W 075°31'0 0.2
2018-Jun-19 19:00N 10°21' W 075°31'3 6.3
2018-Jun-19 18:28N 10°24' W 075°32'0 0.2
2018-Jun-19 18:00N 10°24' W 075°31'0 0.0
2018-Jun-19 17:30N 10°24' W 075°31'0 0.0
2018-Jun-19 17:00N 10°24' W 075°31'0 0.0
2018-Jun-19 16:28N 10°24' W 075°31'1 1.9
2018-Jun-19 16:00N 10°24' W 075°32'0 0.1
2018-Jun-19 15:29N 10°24' W 075°32'1 2.0
2018-Jun-19 15:00N 10°23' W 075°33'1 2.1
2018-Jun-19 14:30N 10°24' W 075°32'2 4.1
2018-Jun-19 14:00N 10°23' W 075°31'0 0.5
2018-Jun-19 13:28N 10°23' W 075°31'1 1.7
2018-Jun-19 13:00N 10°22' W 075°31'1 1.8
2018-Jun-19 12:29N 10°23' W 075°31'0 0.0
2018-Jun-19 11:59N 10°23' W 075°31'3 5.9
2018-Jun-19 11:30N 10°20' W 075°31'1 2.1
2018-Jun-19 10:58N 10°19' W 075°31'0 0.6
2018-Jun-19 10:30N 10°19' W 075°31'0 0.8
2018-Jun-19 10:00N 10°19' W 075°31'4 8.1
2018-Jun-19 09:30N 10°23' W 075°32'1 2.6
2018-Jun-19 09:00N 10°24' W 075°32'0 0.0
2018-Jun-19 08:30N 10°24' W 075°32'0 0.0
2018-Jun-19 08:00N 10°24' W 075°32'0 0.0
2018-Jun-19 07:28N 10°24' W 075°32'0 0.0
2018-Jun-19 07:00N 10°24' W 075°32'0 0.0
2018-Jun-19 06:30N 10°24' W 075°32'0 0.0
2018-Jun-19 06:00N 10°24' W 075°32'0 0.0
2018-Jun-19 05:30N 10°24' W 075°32'0 0.3
2018-Jun-19 05:00N 10°24' W 075°32'0 0.7
2018-Jun-19 04:28N 10°24' W 075°32'0 0.6
2018-Jun-19 03:59N 10°24' W 075°32'1 1.0
2018-Jun-19 03:30N 10°24' W 075°32'0 0.4
2018-Jun-19 02:58N 10°24' W 075°32'0 0.2
2018-Jun-19 02:30N 10°24' W 075°32'2 4.2
2018-Jun-19 02:00N 10°23' W 075°31'0 0.1
2018-Jun-19 01:29N 10°23' W 075°31'1 2.1
2018-Jun-19 01:00N 10°22' W 075°32'0 0.7
2018-Jun-19 00:30N 10°22' W 075°32'1 2.9
2018-Jun-19 00:00N 10°24' W 075°31'0 0.0
2018-Jun-18 23:30N 10°24' W 075°31'0 0.0
2018-Jun-18 23:00N 10°24' W 075°31'0 0.0
2018-Jun-18 22:30N 10°24' W 075°31'0 0.0
2018-Jun-18 22:00N 10°24' W 075°31'0 0.0
2018-Jun-18 21:30N 10°24' W 075°31'0 0.0
2018-Jun-18 21:00N 10°24' W 075°31'0 0.0
2018-Jun-18 20:30N 10°24' W 075°31'0 0.1
2018-Jun-18 19:57N 10°24' W 075°31'0 0.2
2018-Jun-18 19:30N 10°24' W 075°32'0 0.1
2018-Jun-18 19:00N 10°24' W 075°31'0 0.0
2018-Jun-18 18:29N 10°24' W 075°31'0 0.0
2018-Jun-18 18:00N 10°24' W 075°31'0 0.0
2018-Jun-18 17:30N 10°24' W 075°31'1 1.7
2018-Jun-18 17:00N 10°24' W 075°32'1 1.8
2018-Jun-18 16:30N 10°23' W 075°32'1 1.7
2018-Jun-18 16:00N 10°24' W 075°32'0 0.7
2018-Jun-18 15:30N 10°24' W 075°31'0 0.0
2018-Jun-18 15:00N 10°24' W 075°31'0 0.0
2018-Jun-18 14:30N 10°24' W 075°31'0 0.0
2018-Jun-18 14:00N 10°24' W 075°31'0 0.0
2018-Jun-18 13:30N 10°24' W 075°31'1 1.1
2018-Jun-18 13:00N 10°24' W 075°32'0 0.0
2018-Jun-18 12:30N 10°24' W 075°32'0 0.0
2018-Jun-18 12:00N 10°24' W 075°32'0 0.0
2018-Jun-18 11:30N 10°24' W 075°32'0 0.0
2018-Jun-18 11:01N 10°24' W 075°32'0 0.0
2018-Jun-18 10:29N 10°24' W 075°32'0 0.0
2018-Jun-18 10:00N 10°24' W 075°32'0 0.0
2018-Jun-18 09:30N 10°24' W 075°32'0 0.0
2018-Jun-18 09:00N 10°24' W 075°32'0 0.0
2018-Jun-18 08:29N 10°24' W 075°32'0 0.0
2018-Jun-18 07:57N 10°24' W 075°32'0 0.0
2018-Jun-18 07:30N 10°24' W 075°32'0 0.0
2018-Jun-18 07:00N 10°24' W 075°32'0 0.0
2018-Jun-18 06:31N 10°24' W 075°32'0 0.0
2018-Jun-18 06:00N 10°24' W 075°32'0 0.0
2018-Jun-18 05:30N 10°24' W 075°32'0 0.0
2018-Jun-18 05:00N 10°24' W 075°32'0 0.7
2018-Jun-18 04:30N 10°24' W 075°32'1 1.5
2018-Jun-18 04:00N 10°24' W 075°32'0 1.0
2018-Jun-18 03:30N 10°24' W 075°32'2 3.5
2018-Jun-18 03:00N 10°22' W 075°32'2 4.1
2018-Jun-18 02:31N 10°21' W 075°31'0 0.2
2018-Jun-18 02:00N 10°20' W 075°31'0 0.7
2018-Jun-18 01:30N 10°20' W 075°31'4 7.3
2018-Jun-18 01:00N 10°24' W 075°32'1 1.2
2018-Jun-18 00:30N 10°24' W 075°31'0 0.0
2018-Jun-18 00:00N 10°24' W 075°31'0 0.0
2018-Jun-17 23:30N 10°24' W 075°31'0 0.0
2018-Jun-17 23:00N 10°24' W 075°31'0 0.0
2018-Jun-17 22:30N 10°24' W 075°31'0 0.0
2018-Jun-17 22:00N 10°24' W 075°31'0 0.0
2018-Jun-17 21:30N 10°24' W 075°31'0 0.0
2018-Jun-17 21:00N 10°24' W 075°31'0 0.0
2018-Jun-17 20:31N 10°24' W 075°31'0 0.0
2018-Jun-17 20:00N 10°24' W 075°31'0 0.0
2018-Jun-17 19:30N 10°24' W 075°31'0 0.0
2018-Jun-17 19:00N 10°24' W 075°31'0 0.0
2018-Jun-17 18:30N 10°24' W 075°31'0 0.0
2018-Jun-17 18:00N 10°24' W 075°31'0 0.0
2018-Jun-17 17:30N 10°24' W 075°31'0 0.0
2018-Jun-17 17:00N 10°24' W 075°31'  
2018-Jun-14 12:43N 10°23' W 075°31'0 0.0
2018-Jun-14 12:02N 10°23' W 075°31'0 0.1
2018-Jun-14 11:49N 10°23' W 075°31'0 0.0
2018-Jun-14 11:30N 10°23' W 075°31'0 0.0
2018-Jun-14 11:00N 10°23' W 075°31'0 0.0
2018-Jun-14 10:30N 10°23' W 075°31'0 0.0
2018-Jun-14 09:58N 10°23' W 075°31'0 0.0
2018-Jun-14 09:30N 10°23' W 075°31'0 0.0
2018-Jun-14 08:57N 10°23' W 075°31'0 0.0
2018-Jun-14 08:29N 10°23' W 075°31'0 0.9
2018-Jun-14 08:00N 10°23' W 075°31'0 0.3
2018-Jun-14 07:29N 10°23' W 075°31'0 0.6
2018-Jun-14 06:58N 10°23' W 075°31'0 0.1
2018-Jun-14 06:28N 10°23' W 075°31'0 0.0
2018-Jun-14 06:00N 10°23' W 075°31'0 0.0
2018-Jun-14 05:29N 10°23' W 075°31'0 0.0
2018-Jun-14 05:00N 10°23' W 075°31'0 0.0
2018-Jun-14 04:29N 10°23' W 075°31'0 0.0
2018-Jun-14 04:00N 10°23' W 075°31'0 0.0
2018-Jun-14 03:30N 10°23' W 075°31'0 0.0
2018-Jun-14 03:00N 10°23' W 075°31'0 0.0
2018-Jun-14 02:29N 10°23' W 075°31'0 0.0
2018-Jun-14 01:59N 10°23' W 075°31'0 0.0
2018-Jun-14 01:29N 10°23' W 075°31'0 0.0
2018-Jun-14 00:58N 10°23' W 075°31'0 0.0
2018-Jun-14 00:22N 10°23' W 075°31'0 0.0
2018-Jun-13 23:58N 10°23' W 075°31'0 0.0
2018-Jun-13 23:29N 10°23' W 075°31'0 0.0
2018-Jun-13 23:00N 10°23' W 075°31'0 0.0
2018-Jun-13 22:30N 10°23' W 075°31'0 0.0
2018-Jun-13 21:59N 10°23' W 075°31'0 0.0
2018-Jun-13 21:30N 10°23' W 075°31'0 0.0
2018-Jun-13 20:47N 10°23' W 075°31'0 0.0
2018-Jun-13 20:23N 10°23' W 075°31'0 0.0
2018-Jun-13 20:00N 10°23' W 075°31'0 0.0
2018-Jun-13 19:30N 10°23' W 075°31'0 0.0
2018-Jun-13 19:00N 10°23' W 075°31'0 0.0
2018-Jun-13 18:30N 10°23' W 075°31'0 0.0
2018-Jun-13 18:00N 10°23' W 075°31'0 0.0
2018-Jun-13 17:23N 10°23' W 075°31'0 0.1
2018-Jun-13 16:59N 10°23' W 075°31'0 0.6
2018-Jun-13 16:30N 10°22' W 075°31'2 4.0
2018-Jun-13 15:59N 10°24' W 075°32'0 0.5
2018-Jun-13 15:30N 10°24' W 075°32'2 3.2
2018-Jun-13 15:00N 10°23' W 075°32'1 1.0
2018-Jun-13 14:28N 10°23' W 075°31'0 0.0
2018-Jun-13 14:00N 10°23' W 075°31'0 0.0
2018-Jun-13 13:30N 10°23' W 075°31'1 3.0
2018-Jun-13 13:00N 10°21' W 075°32'2 4.7
2018-Jun-13 12:30N 10°19' W 075°31'1 1.0
2018-Jun-13 12:00N 10°19' W 075°31'3 6.1
2018-Jun-13 11:25N 10°23' W 075°31'0 0.0
2018-Jun-13 11:01N 10°23' W 075°31'0 0.0
2018-Jun-13 10:29N 10°23' W 075°31'0 0.0
2018-Jun-13 10:00N 10°23' W 075°31'0 0.0
2018-Jun-13 09:30N 10°23' W 075°31'0 0.0
2018-Jun-13 09:00N 10°23' W 075°31'0 0.0
2018-Jun-13 08:30N 10°23' W 075°31'0 0.0
2018-Jun-13 07:59N 10°23' W 075°31'0 0.0
2018-Jun-13 07:30N 10°23' W 075°31'0 0.0
2018-Jun-13 07:00N 10°23' W 075°31'0 0.4
2018-Jun-13 06:30N 10°23' W 075°31'0 0.1
2018-Jun-13 06:00N 10°23' W 075°31'1 1.5
2018-Jun-13 05:29N 10°22' W 075°31'2 3.7
2018-Jun-13 05:00N 10°24' W 075°32'1 1.3
2018-Jun-13 04:29N 10°24' W 075°32'0 0.0
2018-Jun-13 04:00N 10°24' W 075°32'0 0.0
2018-Jun-13 03:30N 10°24' W 075°32'0 0.0
2018-Jun-13 03:00N 10°24' W 075°32'0 0.0
2018-Jun-13 02:30N 10°24' W 075°32'0 0.5
2018-Jun-13 02:00N 10°24' W 075°32'0 0.4
2018-Jun-13 01:30N 10°24' W 075°32'0 0.2
2018-Jun-13 00:59N 10°24' W 075°32'2 3.7
2018-Jun-13 00:28N 10°23' W 075°31'0 0.0
2018-Jun-13 00:00N 10°23' W 075°31'0 0.0
2018-Jun-12 23:30N 10°23' W 075°31'0 0.0
2018-Jun-12 23:00N 10°23' W 075°31'0 0.0
2018-Jun-12 22:29N 10°23' W 075°31'0 0.0
2018-Jun-12 22:00N 10°23' W 075°31'0 0.0
2018-Jun-12 21:29N 10°23' W 075°31'0 0.0
2018-Jun-12 21:00N 10°23' W 075°31'0 0.0
2018-Jun-12 20:30N 10°23' W 075°31'0 0.0
2018-Jun-12 19:59N 10°23' W 075°31'0 0.0
2018-Jun-12 19:28N 10°23' W 075°31'0 0.0
2018-Jun-12 19:00N 10°23' W 075°31'2 3.9
2018-Jun-12 18:30N 10°21' W 075°31'2 4.4
2018-Jun-12 17:59N 10°19' W 075°31'0 0.7
2018-Jun-12 17:30N 10°19' W 075°31'0 0.7
2018-Jun-12 17:00N 10°19' W 075°31'0 0.0
2018-Jun-12 16:30N 10°19' W 075°31'0 0.0
2018-Jun-12 16:00N 10°19' W 075°31'0 0.7
2018-Jun-12 15:30N 10°19' W 075°31'4 1.9
2018-Jun-12 13:20N 10°23' W 075°31'0 0.0
2018-Jun-12 13:00N 10°23' W 075°31'0 0.0
2018-Jun-12 12:30N 10°23' W 075°31'0 0.0
2018-Jun-12 11:59N 10°23' W 075°31'0 0.0
2018-Jun-12 11:30N 10°23' W 075°31'0 0.4
2018-Jun-12 11:00N 10°23' W 075°31'0 0.4
2018-Jun-12 10:30N 10°23' W 075°31'0 0.0
2018-Jun-12 10:00N 10°23' W 075°31'0 0.0
2018-Jun-12 09:30N 10°23' W 075°31'0 0.0
2018-Jun-12 09:00N 10°23' W 075°31'0 0.0
2018-Jun-12 08:29N 10°23' W 075°31'0 0.0
2018-Jun-12 07:57N 10°23' W 075°31'4 7.5
2018-Jun-12 07:25N 10°19' W 075°31'0 0.1
2018-Jun-12 06:59N 10°19' W 075°31'3 6.5
2018-Jun-12 06:30N 10°22' W 075°31'1 2.2
2018-Jun-12 06:00N 10°23' W 075°31'0 0.0
2018-Jun-12 05:29N 10°23' W 075°31'0 0.0
2018-Jun-12 04:59N 10°23' W 075°31'0 0.0
2018-Jun-12 04:30N 10°23' W 075°31'0 0.0
2018-Jun-12 04:00N 10°23' W 075°31'0 0.0
2018-Jun-12 03:30N 10°23' W 075°31'0 0.0
2018-Jun-12 03:00N 10°23' W 075°31'0 0.0
2018-Jun-12 02:30N 10°23' W 075°31'0 0.0
2018-Jun-12 02:00N 10°23' W 075°31'0 0.0
2018-Jun-12 01:30N 10°23' W 075°31'0 0.0
2018-Jun-12 01:00N 10°23' W 075°31'0 0.0
2018-Jun-12 00:30N 10°23' W 075°31'2 4.6
2018-Jun-12 00:00N 10°21' W 075°31'0 0.4
2018-Jun-11 23:30N 10°21' W 075°30'0 0.3
2018-Jun-11 23:00N 10°21' W 075°30'1 1.4
2018-Jun-11 22:30N 10°20' W 075°31'0 0.0
2018-Jun-11 22:00N 10°20' W 075°31'0 0.0
2018-Jun-11 21:30N 10°20' W 075°31'0 0.0
2018-Jun-11 21:00N 10°20' W 075°31'0 0.0
2018-Jun-11 20:30N 10°20' W 075°31'0 0.0
2018-Jun-11 19:58N 10°20' W 075°31'0 0.0
2018-Jun-11 19:30N 10°20' W 075°31'0 0.0
2018-Jun-11 18:59N 10°20' W 075°31'0 0.0
2018-Jun-11 18:30N 10°20' W 075°31'0 0.0
2018-Jun-11 17:59N 10°20' W 075°31'0 0.0
2018-Jun-11 17:30N 10°20' W 075°31'0 0.0
2018-Jun-11 17:00N 10°20' W 075°31'0 0.0
2018-Jun-11 16:29N 10°20' W 075°31'0 0.0
2018-Jun-11 16:00N 10°20' W 075°31'0 0.0
2018-Jun-11 15:30N 10°20' W 075°31'0 0.4
2018-Jun-11 15:00N 10°20' W 075°31'1 2.1
2018-Jun-11 14:30N 10°19' W 075°31'0 0.0
2018-Jun-11 14:00N 10°19' W 075°31'1 1.1
2018-Jun-11 13:30N 10°19' W 075°31'1 2.1
2018-Jun-11 13:00N 10°18' W 075°31'0 0.8
2018-Jun-11 12:21N 10°18' W 075°31'1 1.4
2018-Jun-11 11:59N 10°19' W 075°31'  
Track history (hours):
 
Tides and Currents Weather Stations Pressure Air Temp Water Temp Dewpoint Dewpoint Depression Visibility Wind Speed Wind Dir Waves Ship Positions

Rm Boreas

Last reported at 2018-Jun-20 16:27 UTC. Time now 2018-Jun-20 17:13 UTC.
Position N 10°21' W 075°31'.

Length 30 m; draft 4 m.

Type: Tug. MMSI: 730151209.

Date/timePositionNaut miles runAvg speedWind from/ knotsBaromVisibWave heightAir tempDewpointWater temp
2018-Jun-20 16:27N 10°21' W 075°31'4 5.6
2018-Jun-20 15:50N 10°24' W 075°32'0 0.3
2018-Jun-20 15:30N 10°24' W 075°32'1 1.5
2018-Jun-20 14:59N 10°24' W 075°32'1 1.2
2018-Jun-20 14:29N 10°24' W 075°32'0 0.2
2018-Jun-20 13:58N 10°24' W 075°32'0 0.0
2018-Jun-20 13:17N 10°24' W 075°32'0 0.0
2018-Jun-20 12:58N 10°24' W 075°32'0 0.1
2018-Jun-20 12:29N 10°24' W 075°32'0 0.4
2018-Jun-20 12:00N 10°24' W 075°32'2 4.0
2018-Jun-20 11:30N 10°22' W 075°31'1 1.4
2018-Jun-20 11:00N 10°23' W 075°31'0 0.0
2018-Jun-20 10:30N 10°23' W 075°31'0 0.0
2018-Jun-20 09:59N 10°23' W 075°31'0 0.2
2018-Jun-20 09:30N 10°23' W 075°31'1 1.8
2018-Jun-20 08:55N 10°22' W 075°32'1 2.4
2018-Jun-20 08:29N 10°23' W 075°31'0 0.2
2018-Jun-20 08:00N 10°23' W 075°31'0 0.0
2018-Jun-20 07:30N 10°23' W 075°31'0 0.0
2018-Jun-20 07:00N 10°23' W 075°31'0 0.0
2018-Jun-20 06:30N 10°23' W 075°31'0 0.0
2018-Jun-20 06:00N 10°23' W 075°31'0 0.0
2018-Jun-20 05:30N 10°23' W 075°31'0 0.0
2018-Jun-20 04:59N 10°23' W 075°31'0 0.0
2018-Jun-20 04:30N 10°23' W 075°31'0 0.0
2018-Jun-20 04:00N 10°23' W 075°31'0 0.0
2018-Jun-20 03:30N 10°23' W 075°31'0 0.0
2018-Jun-20 03:00N 10°23' W 075°31'0 0.6
2018-Jun-20 02:30N 10°23' W 075°31'0 0.3
2018-Jun-20 02:00N 10°23' W 075°31'0 0.6
2018-Jun-20 01:29N 10°23' W 075°31'0 0.0
2018-Jun-20 01:00N 10°23' W 075°31'0 0.0
2018-Jun-20 00:29N 10°23' W 075°31'0 0.0
2018-Jun-20 00:00N 10°23' W 075°31'0 0.0
2018-Jun-19 23:28N 10°23' W 075°31'0 0.0
2018-Jun-19 23:00N 10°23' W 075°31'0 0.8
2018-Jun-19 22:29N 10°23' W 075°31'0 0.5
2018-Jun-19 22:00N 10°22' W 075°31'0 0.0
2018-Jun-19 21:29N 10°22' W 075°31'2 3.8
2018-Jun-19 20:59N 10°21' W 075°31'0 0.0
2018-Jun-19 20:30N 10°21' W 075°31'1 1.8
2018-Jun-19 20:00N 10°20' W 075°31'1 1.8
2018-Jun-19 19:30N 10°21' W 075°31'0 0.2
2018-Jun-19 19:00N 10°21' W 075°31'3 6.3
2018-Jun-19 18:28N 10°24' W 075°32'0 0.2
2018-Jun-19 18:00N 10°24' W 075°31'0 0.0
2018-Jun-19 17:30N 10°24' W 075°31'0 0.0
2018-Jun-19 17:00N 10°24' W 075°31'0 0.0
2018-Jun-19 16:28N 10°24' W 075°31'1 1.9
2018-Jun-19 16:00N 10°24' W 075°32'0 0.1
2018-Jun-19 15:29N 10°24' W 075°32'1 2.0
2018-Jun-19 15:00N 10°23' W 075°33'1 2.1
2018-Jun-19 14:30N 10°24' W 075°32'2 4.1
2018-Jun-19 14:00N 10°23' W 075°31'0 0.5
2018-Jun-19 13:28N 10°23' W 075°31'1 1.7
2018-Jun-19 13:00N 10°22' W 075°31'1 1.8
2018-Jun-19 12:29N 10°23' W 075°31'0 0.0
2018-Jun-19 11:59N 10°23' W 075°31'3 5.9
2018-Jun-19 11:30N 10°20' W 075°31'1 2.1
2018-Jun-19 10:58N 10°19' W 075°31'0 0.6
2018-Jun-19 10:30N 10°19' W 075°31'0 0.8
2018-Jun-19 10:00N 10°19' W 075°31'4 8.1
2018-Jun-19 09:30N 10°23' W 075°32'1 2.6
2018-Jun-19 09:00N 10°24' W 075°32'0 0.0
2018-Jun-19 08:30N 10°24' W 075°32'0 0.0
2018-Jun-19 08:00N 10°24' W 075°32'0 0.0
2018-Jun-19 07:28N 10°24' W 075°32'0 0.0
2018-Jun-19 07:00N 10°24' W 075°32'0 0.0
2018-Jun-19 06:30N 10°24' W 075°32'0 0.0
2018-Jun-19 06:00N 10°24' W 075°32'0 0.0
2018-Jun-19 05:30N 10°24' W 075°32'0 0.3
2018-Jun-19 05:00N 10°24' W 075°32'0 0.7
2018-Jun-19 04:28N 10°24' W 075°32'0 0.6
2018-Jun-19 03:59N 10°24' W 075°32'1 1.0
2018-Jun-19 03:30N 10°24' W 075°32'0 0.4
2018-Jun-19 02:58N 10°24' W 075°32'0 0.2
2018-Jun-19 02:30N 10°24' W 075°32'2 4.2
2018-Jun-19 02:00N 10°23' W 075°31'0 0.1
2018-Jun-19 01:29N 10°23' W 075°31'1 2.1
2018-Jun-19 01:00N 10°22' W 075°32'0 0.7
2018-Jun-19 00:30N 10°22' W 075°32'1 2.9
2018-Jun-19 00:00N 10°24' W 075°31'0 0.0
2018-Jun-18 23:30N 10°24' W 075°31'0 0.0
2018-Jun-18 23:00N 10°24' W 075°31'0 0.0
2018-Jun-18 22:30N 10°24' W 075°31'0 0.0
2018-Jun-18 22:00N 10°24' W 075°31'0 0.0
2018-Jun-18 21:30N 10°24' W 075°31'0 0.0
2018-Jun-18 21:00N 10°24' W 075°31'0 0.0
2018-Jun-18 20:30N 10°24' W 075°31'0 0.1
2018-Jun-18 19:57N 10°24' W 075°31'0 0.2
2018-Jun-18 19:30N 10°24' W 075°32'0 0.1
2018-Jun-18 19:00N 10°24' W 075°31'0 0.0
2018-Jun-18 18:29N 10°24' W 075°31'0 0.0
2018-Jun-18 18:00N 10°24' W 075°31'0 0.0
2018-Jun-18 17:30N 10°24' W 075°31'1 1.7
2018-Jun-18 17:00N 10°24' W 075°32'1 1.8
2018-Jun-18 16:30N 10°23' W 075°32'1 1.7
2018-Jun-18 16:00N 10°24' W 075°32'0 0.7
2018-Jun-18 15:30N 10°24' W 075°31'0 0.0
2018-Jun-18 15:00N 10°24' W 075°31'0 0.0
2018-Jun-18 14:30N 10°24' W 075°31'0 0.0
2018-Jun-18 14:00N 10°24' W 075°31'0 0.0
2018-Jun-18 13:30N 10°24' W 075°31'1 1.1
2018-Jun-18 13:00N 10°24' W 075°32'0 0.0
2018-Jun-18 12:30N 10°24' W 075°32'0 0.0
2018-Jun-18 12:00N 10°24' W 075°32'0 0.0
2018-Jun-18 11:30N 10°24' W 075°32'0 0.0
2018-Jun-18 11:01N 10°24' W 075°32'0 0.0
2018-Jun-18 10:29N 10°24' W 075°32'0 0.0
2018-Jun-18 10:00N 10°24' W 075°32'0 0.0
2018-Jun-18 09:30N 10°24' W 075°32'0 0.0
2018-Jun-18 09:00N 10°24' W 075°32'0 0.0
2018-Jun-18 08:29N 10°24' W 075°32'0 0.0
2018-Jun-18 07:57N 10°24' W 075°32'0 0.0
2018-Jun-18 07:30N 10°24' W 075°32'0 0.0
2018-Jun-18 07:00N 10°24' W 075°32'0 0.0
2018-Jun-18 06:31N 10°24' W 075°32'0 0.0
2018-Jun-18 06:00N 10°24' W 075°32'0 0.0
2018-Jun-18 05:30N 10°24' W 075°32'0 0.0
2018-Jun-18 05:00N 10°24' W 075°32'0 0.7
2018-Jun-18 04:30N 10°24' W 075°32'1 1.5
2018-Jun-18 04:00N 10°24' W 075°32'0 1.0
2018-Jun-18 03:30N 10°24' W 075°32'2 3.5
2018-Jun-18 03:00N 10°22' W 075°32'2 4.1
2018-Jun-18 02:31N 10°21' W 075°31'0 0.2
2018-Jun-18 02:00N 10°20' W 075°31'0 0.7
2018-Jun-18 01:30N 10°20' W 075°31'4 7.3
2018-Jun-18 01:00N 10°24' W 075°32'1 1.2
2018-Jun-18 00:30N 10°24' W 075°31'0 0.0
2018-Jun-18 00:00N 10°24' W 075°31'0 0.0
2018-Jun-17 23:30N 10°24' W 075°31'0 0.0
2018-Jun-17 23:00N 10°24' W 075°31'0 0.0
2018-Jun-17 22:30N 10°24' W 075°31'0 0.0
2018-Jun-17 22:00N 10°24' W 075°31'0 0.0
2018-Jun-17 21:30N 10°24' W 075°31'0 0.0
2018-Jun-17 21:00N 10°24' W 075°31'0 0.0
2018-Jun-17 20:31N 10°24' W 075°31'0 0.0
2018-Jun-17 20:00N 10°24' W 075°31'0 0.0
2018-Jun-17 19:30N 10°24' W 075°31'0 0.0
2018-Jun-17 19:00N 10°24' W 075°31'0 0.0
2018-Jun-17 18:30N 10°24' W 075°31'0 0.0
2018-Jun-17 18:00N 10°24' W 075°31'0 0.0
2018-Jun-17 17:30N 10°24' W 075°31'0 0.0
2018-Jun-17 17:00N 10°24' W 075°31'  
2018-Jun-14 12:43N 10°23' W 075°31'0 0.0
2018-Jun-14 12:02N 10°23' W 075°31'0 0.1
2018-Jun-14 11:49N 10°23' W 075°31'0 0.0
2018-Jun-14 11:30N 10°23' W 075°31'0 0.0
2018-Jun-14 11:00N 10°23' W 075°31'0 0.0
2018-Jun-14 10:30N 10°23' W 075°31'0 0.0
2018-Jun-14 09:58N 10°23' W 075°31'0 0.0
2018-Jun-14 09:30N 10°23' W 075°31'0 0.0
2018-Jun-14 08:57N 10°23' W 075°31'0 0.0
2018-Jun-14 08:29N 10°23' W 075°31'0 0.9
2018-Jun-14 08:00N 10°23' W 075°31'0 0.3
2018-Jun-14 07:29N 10°23' W 075°31'0 0.6
2018-Jun-14 06:58N 10°23' W 075°31'0 0.1
2018-Jun-14 06:28N 10°23' W 075°31'0 0.0
2018-Jun-14 06:00N 10°23' W 075°31'0 0.0
2018-Jun-14 05:29N 10°23' W 075°31'0 0.0
2018-Jun-14 05:00N 10°23' W 075°31'0 0.0
2018-Jun-14 04:29N 10°23' W 075°31'0 0.0
2018-Jun-14 04:00N 10°23' W 075°31'0 0.0
2018-Jun-14 03:30N 10°23' W 075°31'0 0.0
2018-Jun-14 03:00N 10°23' W 075°31'0 0.0
2018-Jun-14 02:29N 10°23' W 075°31'0 0.0
2018-Jun-14 01:59N 10°23' W 075°31'0 0.0
2018-Jun-14 01:29N 10°23' W 075°31'0 0.0
2018-Jun-14 00:58N 10°23' W 075°31'0 0.0
2018-Jun-14 00:22N 10°23' W 075°31'0 0.0
2018-Jun-13 23:58N 10°23' W 075°31'0 0.0
2018-Jun-13 23:29N 10°23' W 075°31'0 0.0
2018-Jun-13 23:00N 10°23' W 075°31'0 0.0
2018-Jun-13 22:30N 10°23' W 075°31'0 0.0
2018-Jun-13 21:59N 10°23' W 075°31'0 0.0
2018-Jun-13 21:30N 10°23' W 075°31'0 0.0
2018-Jun-13 20:47N 10°23' W 075°31'0 0.0
2018-Jun-13 20:23N 10°23' W 075°31'0 0.0
2018-Jun-13 20:00N 10°23' W 075°31'0 0.0
2018-Jun-13 19:30N 10°23' W 075°31'0 0.0
2018-Jun-13 19:00N 10°23' W 075°31'0 0.0
2018-Jun-13 18:30N 10°23' W 075°31'0 0.0
2018-Jun-13 18:00N 10°23' W 075°31'0 0.0
2018-Jun-13 17:23N 10°23' W 075°31'0 0.1
2018-Jun-13 16:59N 10°23' W 075°31'0 0.6
2018-Jun-13 16:30N 10°22' W 075°31'2 4.0
2018-Jun-13 15:59N 10°24' W 075°32'0 0.5
2018-Jun-13 15:30N 10°24' W 075°32'2 3.2
2018-Jun-13 15:00N 10°23' W 075°32'1 1.0
2018-Jun-13 14:28N 10°23' W 075°31'0 0.0
2018-Jun-13 14:00N 10°23' W 075°31'0 0.0
2018-Jun-13 13:30N 10°23' W 075°31'1 3.0
2018-Jun-13 13:00N 10°21' W 075°32'2 4.7
2018-Jun-13 12:30N 10°19' W 075°31'1 1.0
2018-Jun-13 12:00N 10°19' W 075°31'3 6.1
2018-Jun-13 11:25N 10°23' W 075°31'0 0.0
2018-Jun-13 11:01N 10°23' W 075°31'0 0.0
2018-Jun-13 10:29N 10°23' W 075°31'0 0.0
2018-Jun-13 10:00N 10°23' W 075°31'0 0.0
2018-Jun-13 09:30N 10°23' W 075°31'0 0.0
2018-Jun-13 09:00N 10°23' W 075°31'0 0.0
2018-Jun-13 08:30N 10°23' W 075°31'0 0.0
2018-Jun-13 07:59N 10°23' W 075°31'0 0.0
2018-Jun-13 07:30N 10°23' W 075°31'0 0.0
2018-Jun-13 07:00N 10°23' W 075°31'0 0.4
2018-Jun-13 06:30N 10°23' W 075°31'0 0.1
2018-Jun-13 06:00N 10°23' W 075°31'1 1.5
2018-Jun-13 05:29N 10°22' W 075°31'2 3.7
2018-Jun-13 05:00N 10°24' W 075°32'1 1.3
2018-Jun-13 04:29N 10°24' W 075°32'0 0.0
2018-Jun-13 04:00N 10°24' W 075°32'0 0.0
2018-Jun-13 03:30N 10°24' W 075°32'0 0.0
2018-Jun-13 03:00N 10°24' W 075°32'0 0.0
2018-Jun-13 02:30N 10°24' W 075°32'0 0.5
2018-Jun-13 02:00N 10°24' W 075°32'0 0.4
2018-Jun-13 01:30N 10°24' W 075°32'0 0.2
2018-Jun-13 00:59N 10°24' W 075°32'2 3.7
2018-Jun-13 00:28N 10°23' W 075°31'0 0.0
2018-Jun-13 00:00N 10°23' W 075°31'0 0.0
2018-Jun-12 23:30N 10°23' W 075°31'0 0.0
2018-Jun-12 23:00N 10°23' W 075°31'0 0.0
2018-Jun-12 22:29N 10°23' W 075°31'0 0.0
2018-Jun-12 22:00N 10°23' W 075°31'0 0.0
2018-Jun-12 21:29N 10°23' W 075°31'0 0.0
2018-Jun-12 21:00N 10°23' W 075°31'0 0.0
2018-Jun-12 20:30N 10°23' W 075°31'0 0.0
2018-Jun-12 19:59N 10°23' W 075°31'0 0.0
2018-Jun-12 19:28N 10°23' W 075°31'0 0.0
2018-Jun-12 19:00N 10°23' W 075°31'2 3.9
2018-Jun-12 18:30N 10°21' W 075°31'2 4.4
2018-Jun-12 17:59N 10°19' W 075°31'0 0.7
2018-Jun-12 17:30N 10°19' W 075°31'0 0.7
2018-Jun-12 17:00N 10°19' W 075°31'0 0.0
2018-Jun-12 16:30N 10°19' W 075°31'0 0.0
2018-Jun-12 16:00N 10°19' W 075°31'0 0.7
2018-Jun-12 15:30N 10°19' W 075°31'4 1.9
2018-Jun-12 13:20N 10°23' W 075°31'0 0.0
2018-Jun-12 13:00N 10°23' W 075°31'0 0.0
2018-Jun-12 12:30N 10°23' W 075°31'0 0.0
2018-Jun-12 11:59N 10°23' W 075°31'0 0.0
2018-Jun-12 11:30N 10°23' W 075°31'0 0.4
2018-Jun-12 11:00N 10°23' W 075°31'0 0.4
2018-Jun-12 10:30N 10°23' W 075°31'0 0.0
2018-Jun-12 10:00N 10°23' W 075°31'0 0.0
2018-Jun-12 09:30N 10°23' W 075°31'0 0.0
2018-Jun-12 09:00N 10°23' W 075°31'0 0.0
2018-Jun-12 08:29N 10°23' W 075°31'0 0.0
2018-Jun-12 07:57N 10°23' W 075°31'4 7.5
2018-Jun-12 07:25N 10°19' W 075°31'0 0.1
2018-Jun-12 06:59N 10°19' W 075°31'3 6.5
2018-Jun-12 06:30N 10°22' W 075°31'1 2.2
2018-Jun-12 06:00N 10°23' W 075°31'0 0.0
2018-Jun-12 05:29N 10°23' W 075°31'0 0.0
2018-Jun-12 04:59N 10°23' W 075°31'0 0.0
2018-Jun-12 04:30N 10°23' W 075°31'0 0.0
2018-Jun-12 04:00N 10°23' W 075°31'0 0.0
2018-Jun-12 03:30N 10°23' W 075°31'0 0.0
2018-Jun-12 03:00N 10°23' W 075°31'0 0.0
2018-Jun-12 02:30N 10°23' W 075°31'0 0.0
2018-Jun-12 02:00N 10°23' W 075°31'0 0.0
2018-Jun-12 01:30N 10°23' W 075°31'0 0.0
2018-Jun-12 01:00N 10°23' W 075°31'0 0.0
2018-Jun-12 00:30N 10°23' W 075°31'2 4.6
2018-Jun-12 00:00N 10°21' W 075°31'0 0.4
2018-Jun-11 23:30N 10°21' W 075°30'0 0.3
2018-Jun-11 23:00N 10°21' W 075°30'1 1.4
2018-Jun-11 22:30N 10°20' W 075°31'0 0.0
2018-Jun-11 22:00N 10°20' W 075°31'0 0.0
2018-Jun-11 21:30N 10°20' W 075°31'0 0.0
2018-Jun-11 21:00N 10°20' W 075°31'0 0.0
2018-Jun-11 20:30N 10°20' W 075°31'0 0.0
2018-Jun-11 19:58N 10°20' W 075°31'0 0.0
2018-Jun-11 19:30N 10°20' W 075°31'0 0.0
2018-Jun-11 18:59N 10°20' W 075°31'0 0.0
2018-Jun-11 18:30N 10°20' W 075°31'0 0.0
2018-Jun-11 17:59N 10°20' W 075°31'0 0.0
2018-Jun-11 17:30N 10°20' W 075°31'0 0.0
2018-Jun-11 17:00N 10°20' W 075°31'0 0.0
2018-Jun-11 16:29N 10°20' W 075°31'0 0.0
2018-Jun-11 16:00N 10°20' W 075°31'0 0.0
2018-Jun-11 15:30N 10°20' W 075°31'0 0.4
2018-Jun-11 15:00N 10°20' W 075°31'1 2.1
2018-Jun-11 14:30N 10°19' W 075°31'0 0.0
2018-Jun-11 14:00N 10°19' W 075°31'1 1.1
2018-Jun-11 13:30N 10°19' W 075°31'1 2.1
2018-Jun-11 13:00N 10°18' W 075°31'0 0.8
2018-Jun-11 12:21N 10°18' W 075°31'1 1.4
2018-Jun-11 11:59N 10°19' W 075°31'  

Dump ship's entire track history